KAFW/AFW METAR and TAF weather

Enter ICAO airport designator
Station Type Date Time Source
KAFW METAR 2019/08/19 07:53 UTC NOAA

KAFW 190753Z 17008KT 10SM BKN250 30/22 A2990 RMK AO2 SLP105 T03000217


Station Type Date Time Source
KAFW Decoded METAR 2019/08/19 07:53 UTC NOAA

Station name not available
Aug 19, 2019 - 03:53 AM EDT / 2019.08.19 0753 UTC
Wind: from the S (170 degrees) at 9 MPH (8 KT):0
Visibility: 10 mile(s):0
Sky conditions: mostly cloudy
Temperature: 86.0 F (30.0 C)
Heat index: 91.4 F (33.0 C):1
Dew Point: 71.1 F (21.7 C)
Relative Humidity: 61%
Pressure (altimeter): 29.9 in. Hg (1012 hPa)
ob: KAFW 190753Z 17008KT 10SM BKN250 30/22 A2990 RMK AO2 SLP105 T03000217
cycle: 8

Station Type Date Time Source
KAFW TAF 2019/08/19 06:22 UTC NOAA

TAF KAFW 190520Z 1906/2006 16011KT P6SM FEW050 FEW250

Example: see airport list